createdAt,value
2019-03-09T00:05:07.329Z,7.60
2019-03-09T00:10:15.129Z,6.98
2019-03-09T00:15:22.805Z,8.44
2019-03-09T00:20:30.462Z,7.01
2019-03-09T00:25:38.126Z,5.03
2019-03-09T00:30:46.014Z,4.30
2019-03-09T00:35:53.629Z,3.99
2019-03-09T00:41:01.294Z,3.79
2019-03-09T00:46:09.018Z,4.11
2019-03-09T00:51:16.762Z,3.54
2019-03-09T00:56:24.465Z,3.94
2019-03-09T01:01:32.117Z,4.42
2019-03-09T01:06:39.705Z,4.30
2019-03-09T01:11:47.337Z,6.07
2019-03-09T01:16:55.037Z,4.44
2019-03-09T01:22:02.625Z,5.01
2019-03-09T01:27:10.262Z,5.44
2019-03-09T01:32:17.877Z,4.63
2019-03-09T01:37:25.535Z,5.06
2019-03-09T01:42:33.201Z,5.32
2019-03-09T01:47:40.950Z,5.72
2019-03-09T01:52:48.633Z,7.35
2019-03-09T01:57:56.414Z,6.67
2019-03-09T02:03:04.079Z,5.42
2019-03-09T02:08:11.789Z,4.61
2019-03-09T02:13:19.414Z,4.95
2019-03-09T02:18:27.026Z,4.42
2019-03-09T02:23:34.632Z,5.01
2019-03-09T02:28:42.265Z,4.86
2019-03-09T02:33:49.907Z,3.94
2019-03-09T02:38:57.642Z,4.93
2019-03-09T02:44:05.312Z,4.73
2019-03-09T02:49:12.969Z,4.92
2019-03-09T02:54:20.633Z,3.93
2019-03-09T02:59:28.217Z,5.40
2019-03-09T03:04:35.883Z,4.59
2019-03-09T03:09:43.529Z,5.78
2019-03-09T03:14:51.271Z,4.96
2019-03-09T03:21:12.366Z,5.72
2019-03-09T03:26:20.030Z,4.84
2019-03-09T03:31:27.703Z,5.26
2019-03-09T03:36:35.527Z,4.47
2019-03-09T03:41:43.235Z,4.39
2019-03-09T03:46:50.969Z,4.76
2019-03-09T03:51:58.909Z,3.98
2019-03-09T03:57:06.539Z,4.11
2019-03-09T04:02:14.257Z,4.21
2019-03-09T04:07:21.926Z,3.42
2019-03-09T04:12:29.630Z,3.04
2019-03-09T04:17:38.076Z,3.45
2019-03-09T04:22:45.737Z,3.60
2019-03-09T04:27:53.329Z,3.45
2019-03-09T04:33:00.982Z,4.39
2019-03-09T04:38:08.578Z,4.87
2019-03-09T04:43:16.209Z,4.72
2019-03-09T04:48:23.869Z,5.42
2019-03-09T04:53:31.515Z,5.46
2019-03-09T04:58:39.078Z,5.97
2019-03-09T05:03:46.674Z,5.99
2019-03-09T05:08:54.301Z,5.11
2019-03-09T05:14:01.990Z,6.62
2019-03-09T05:19:09.653Z,7.56
2019-03-09T05:24:17.332Z,9.95
2019-03-09T05:29:24.945Z,7.60
2019-03-09T05:34:32.593Z,9.71
2019-03-09T05:39:40.310Z,9.40
2019-03-09T05:44:47.917Z,11.49
2019-03-09T05:49:55.577Z,11.21
2019-03-09T05:55:03.192Z,8.59
2019-03-09T06:00:10.809Z,7.99
2019-03-09T06:05:18.458Z,10.12
2019-03-09T06:10:26.101Z,10.48
2019-03-09T06:15:33.815Z,11.39
2019-03-09T06:20:41.422Z,8.22
2019-03-09T06:25:49.248Z,9.25
2019-03-09T06:30:56.895Z,11.60
2019-03-09T06:36:04.517Z,10.42
2019-03-09T06:41:12.249Z,11.07
2019-03-09T06:46:20.049Z,10.49
2019-03-09T06:51:27.717Z,11.23
2019-03-09T06:56:35.344Z,13.77
2019-03-09T07:01:42.997Z,10.54
2019-03-09T07:06:50.618Z,8.78
2019-03-09T07:11:58.338Z,10.23
2019-03-09T07:17:05.999Z,11.04
2019-03-09T07:22:13.620Z,10.56
2019-03-09T07:27:21.633Z,10.23
2019-03-09T07:32:29.327Z,12.19
2019-03-09T07:37:37.131Z,9.92
2019-03-09T07:42:44.688Z,10.42
2019-03-09T07:47:52.329Z,7.52
2019-03-09T07:52:59.914Z,9.54
2019-03-09T07:58:07.546Z,10.18
2019-03-09T08:03:15.198Z,11.28
2019-03-09T08:08:22.864Z,11.37
2019-03-09T08:13:30.613Z,9.61
2019-03-09T08:18:39.086Z,8.47
2019-03-09T08:23:46.811Z,10.13
2019-03-09T08:28:54.567Z,10.21
2019-03-09T08:34:02.906Z,9.22
2019-03-09T08:39:10.625Z,10.38
2019-03-09T08:44:18.293Z,10.63
2019-03-09T08:49:26.040Z,11.96
2019-03-09T08:54:33.803Z,9.11
2019-03-09T08:59:41.492Z,8.27
2019-03-09T09:04:49.113Z,10.25
2019-03-09T09:09:56.832Z,10.25
2019-03-09T09:15:04.590Z,12.00
2019-03-09T09:20:12.314Z,10.92
2019-03-09T09:25:19.927Z,12.89
2019-03-09T09:30:27.682Z,10.00
2019-03-09T09:35:35.236Z,9.80
2019-03-09T09:40:42.951Z,10.75
2019-03-09T09:45:50.594Z,10.32
2019-03-09T09:50:58.384Z,11.56
2019-03-09T09:56:06.041Z,10.51
2019-03-09T10:01:13.667Z,8.14
2019-03-09T10:06:21.369Z,11.74
2019-03-09T10:11:28.997Z,10.40
2019-03-09T10:16:36.785Z,7.91
2019-03-09T10:21:44.555Z,11.38
2019-03-09T10:26:52.322Z,9.97
2019-03-09T10:31:59.941Z,10.07
2019-03-09T10:37:07.665Z,8.64
2019-03-09T10:42:15.309Z,12.44
2019-03-09T10:47:23.131Z,8.71
2019-03-09T10:52:30.777Z,9.23
2019-03-09T10:57:38.506Z,18.77
2019-03-09T11:02:46.206Z,9.45
2019-03-09T11:07:53.963Z,7.65
2019-03-09T11:13:01.780Z,8.85
2019-03-09T11:18:09.585Z,7.41
2019-03-09T11:23:17.379Z,9.28
2019-03-09T11:28:25.291Z,6.88
2019-03-09T11:33:32.869Z,7.79
2019-03-09T11:38:40.545Z,8.61
2019-03-09T11:43:48.313Z,7.46
2019-03-09T11:48:56.053Z,7.70
2019-03-09T11:54:03.633Z,7.31
2019-03-09T11:59:11.330Z,6.86
2019-03-09T12:04:19.054Z,8.30
2019-03-09T12:09:26.715Z,6.30
2019-03-09T12:14:34.316Z,5.58
2019-03-09T12:19:41.983Z,8.46
2019-03-09T12:24:49.606Z,10.49
2019-03-09T12:29:57.413Z,8.33
2019-03-09T12:35:05.093Z,7.15
2019-03-09T12:40:12.743Z,8.32
2019-03-09T12:45:20.357Z,8.50
2019-03-09T12:50:28.017Z,10.25
2019-03-09T12:55:35.659Z,12.73
2019-03-09T13:00:43.562Z,8.91
2019-03-09T13:05:51.221Z,6.97
2019-03-09T13:10:58.959Z,7.65
2019-03-09T13:16:06.686Z,7.27
2019-03-09T13:21:14.349Z,6.97
2019-03-09T13:26:22.096Z,7.13
2019-03-09T13:31:29.785Z,7.41
2019-03-09T13:36:37.429Z,8.34
2019-03-09T13:41:45.223Z,5.90
2019-03-09T13:46:52.988Z,6.75
2019-03-09T13:52:00.717Z,6.53
2019-03-09T13:57:08.313Z,5.95
2019-03-09T14:02:16.101Z,7.08
2019-03-09T14:07:23.791Z,5.82
2019-03-09T14:12:31.570Z,6.37
2019-03-09T14:17:39.335Z,7.75
2019-03-09T14:22:47.169Z,8.44
2019-03-09T14:27:54.841Z,5.11
2019-03-09T14:33:02.593Z,6.05
2019-03-09T14:38:10.179Z,5.45
2019-03-09T14:43:17.949Z,5.64
2019-03-09T14:48:25.549Z,5.75
2019-03-09T14:53:33.354Z,5.81
2019-03-09T14:58:41.296Z,6.87
2019-03-09T15:03:49.093Z,7.52
2019-03-09T15:08:56.730Z,6.46
2019-03-09T15:14:04.540Z,7.19
2019-03-09T15:19:12.296Z,5.05
2019-03-09T15:24:20.078Z,3.61
2019-03-09T15:29:27.750Z,4.52
2019-03-09T15:34:35.567Z,3.77
2019-03-09T15:39:43.226Z,3.86
2019-03-09T15:44:50.945Z,3.26
2019-03-09T15:49:58.571Z,3.90
2019-03-09T15:55:06.401Z,5.27
2019-03-09T16:00:14.060Z,4.86
2019-03-09T16:05:21.964Z,3.70
2019-03-09T16:10:29.661Z,6.18
2019-03-09T16:15:37.359Z,6.60
2019-03-09T16:20:44.942Z,2.91
2019-03-09T16:25:52.685Z,2.98
2019-03-09T16:31:00.400Z,5.55
2019-03-09T16:36:08.250Z,4.22
2019-03-09T16:41:15.917Z,6.38
2019-03-09T16:46:23.910Z,6.02
2019-03-09T16:51:31.542Z,5.87
2019-03-09T16:56:39.454Z,4.73
2019-03-09T17:01:47.102Z,3.32
2019-03-09T17:06:54.865Z,2.20
2019-03-09T17:12:02.518Z,1.62
2019-03-09T17:17:10.290Z,2.75
2019-03-09T17:22:17.967Z,3.07
2019-03-09T17:27:25.658Z,3.42
2019-03-09T17:32:33.412Z,2.37
2019-03-09T17:37:41.609Z,2.88
2019-03-09T17:42:49.309Z,2.94
2019-03-09T17:47:57.080Z,2.91
2019-03-09T17:53:04.651Z,2.75
2019-03-09T17:58:12.378Z,4.31
2019-03-09T18:03:20.879Z,3.59
2019-03-09T18:08:28.738Z,5.99
2019-03-09T18:13:36.323Z,5.40
2019-03-09T18:18:44.140Z,5.40
2019-03-09T18:23:51.795Z,5.14
2019-03-09T18:28:59.536Z,6.42
2019-03-09T18:34:07.157Z,5.80
2019-03-09T18:39:15.017Z,5.41
2019-03-09T18:44:22.705Z,6.86
2019-03-09T18:49:30.426Z,7.41
2019-03-09T18:54:38.244Z,5.58
2019-03-09T18:59:46.076Z,6.59
2019-03-09T19:04:53.880Z,7.21
2019-03-09T19:10:01.750Z,6.24
2019-03-09T19:15:09.437Z,5.82
2019-03-09T19:20:17.396Z,5.91
2019-03-09T19:25:25.135Z,7.71
2019-03-09T19:30:32.808Z,6.62
2019-03-09T19:35:40.629Z,5.82
2019-03-09T19:40:48.429Z,5.80
2019-03-09T19:45:56.216Z,5.51
2019-03-09T19:51:03.941Z,7.27
2019-03-09T19:56:11.739Z,6.38
2019-03-09T20:01:19.661Z,5.18
2019-03-09T20:06:27.462Z,6.73
2019-03-09T20:11:35.256Z,6.66
2019-03-09T20:16:43.206Z,8.30
2019-03-09T20:21:51.120Z,7.27
2019-03-09T20:26:58.816Z,6.21
2019-03-09T20:32:06.550Z,6.01
2019-03-09T20:37:14.182Z,6.33
2019-03-09T20:42:21.930Z,7.78
2019-03-09T20:47:29.712Z,5.74
2019-03-09T20:52:37.517Z,5.72
2019-03-09T20:57:45.261Z,11.25
2019-03-09T21:02:53.032Z,6.94
2019-03-09T21:08:01.673Z,6.09
2019-03-09T21:13:09.449Z,6.23
2019-03-09T21:18:17.049Z,7.45
2019-03-09T21:23:24.842Z,5.72
2019-03-09T21:28:32.439Z,7.01
2019-03-09T21:33:40.485Z,6.24
2019-03-09T21:38:48.179Z,8.89
2019-03-09T21:43:55.960Z,6.58
2019-03-09T21:49:03.643Z,5.93
2019-03-09T21:54:11.482Z,6.94
2019-03-09T21:59:19.067Z,5.56
2019-03-09T22:04:26.973Z,6.57
2019-03-09T22:09:34.683Z,5.91
2019-03-09T22:14:42.519Z,6.25
2019-03-09T22:19:50.167Z,7.51
2019-03-09T22:24:57.834Z,8.20
2019-03-09T22:30:05.426Z,6.90
2019-03-09T22:35:13.185Z,7.24
2019-03-09T22:40:20.921Z,8.66
2019-03-09T22:45:28.753Z,7.90
2019-03-09T22:50:36.358Z,7.30
2019-03-09T22:55:44.178Z,9.30
2019-03-09T23:00:51.907Z,7.46
2019-03-09T23:05:59.603Z,7.69
2019-03-09T23:11:07.206Z,6.00
2019-03-09T23:16:15.081Z,8.34
2019-03-09T23:21:22.773Z,10.74
2019-03-09T23:26:30.501Z,7.81
2019-03-09T23:31:38.190Z,5.89
2019-03-09T23:36:45.990Z,5.75
2019-03-09T23:41:53.601Z,8.66
2019-03-09T23:47:01.526Z,7.52
2019-03-09T23:52:09.261Z,6.04
2019-03-09T23:57:17.054Z,6.86
